Time,TemperatureF,DewpointF,PressureIn,WindDirection,WindDirectionDegrees,WindSpeedMPH,WindSpeedGustMPH,Humidity,HourlyPrecipIn,Conditions,Clouds,dailyrainin,SoftwareType,DateUTC
2013-03-28 00:08:00,40.8,39.0,30.26,NW,318,0.0,-999.0,94,-99.99,,,0.00,weatherlink.com 1.10,2013-03-28 04:08:00,
2013-03-28 00:23:00,40.6,39.0,30.26,NW,318,0.0,-999.0,94,-99.99,,,0.00,weatherlink.com 1.10,2013-03-28 04:23:00,
2013-03-28 00:38:00,40.7,39.0,30.26,NW,318,0.0,-999.0,94,-99.99,,,0.00,weatherlink.com 1.10,2013-03-28 04:38:00,
2013-03-28 00:53:00,40.4,39.0,30.26,NW,318,0.0,-999.0,94,-99.99,,,0.00,weatherlink.com 1.10,2013-03-28 04:53:00,
2013-03-28 01:08:00,40.1,39.0,30.26,NW,317,0.0,-999.0,94,-99.99,,,0.00,weatherlink.com 1.10,2013-03-28 05:08:00,
2013-03-28 01:23:00,40.0,39.0,30.26,NW,318,0.0,-999.0,94,-99.99,,,0.00,weatherlink.com 1.10,2013-03-28 05:23:00,
2013-03-28 01:38:00,39.7,38.0,30.26,NW,318,0.0,-999.0,94,-99.99,,,0.00,weatherlink.com 1.10,2013-03-28 05:38:00,
2013-03-28 01:53:00,39.6,38.0,30.26,NW,317,0.0,-999.0,95,-99.99,,,0.00,weatherlink.com 1.10,2013-03-28 05:53:00,
2013-03-28 02:08:00,39.7,38.0,30.26,NW,317,0.0,-999.0,95,-99.99,,,0.00,weatherlink.com 1.10,2013-03-28 06:08:00,
2013-03-28 02:23:00,39.6,38.0,30.25,NW,317,0.0,-999.0,95,-99.99,,,0.00,weatherlink.com 1.10,2013-03-28 06:23:00,
2013-03-28 02:38:00,39.4,38.0,30.25,NW,317,0.0,-999.0,95,-99.99,,,0.00,weatherlink.com 1.10,2013-03-28 06:38:00,
2013-03-28 02:53:00,39.2,38.0,30.25,NW,318,0.0,-999.0,95,-99.99,,,0.00,weatherlink.com 1.10,2013-03-28 06:53:00,
2013-03-28 03:08:00,39.4,38.0,30.25,NW,318,0.0,-999.0,95,-99.99,,,0.00,weatherlink.com 1.10,2013-03-28 07:08:00,
2013-03-28 03:23:00,39.1,38.0,30.25,NW,318,0.0,-999.0,95,-99.99,,,0.00,weatherlink.com 1.10,2013-03-28 07:23:00,
2013-03-28 03:38:00,39.0,38.0,30.24,NW,316,0.0,-999.0,95,-99.99,,,0.00,weatherlink.com 1.10,2013-03-28 07:38:00,
2013-03-28 03:53:00,38.9,38.0,30.24,NW,317,0.0,-999.0,95,-99.99,,,0.00,weatherlink.com 1.10,2013-03-28 07:53:00,
2013-03-28 04:08:00,38.7,37.0,30.24,NW,316,0.0,-999.0,95,-99.99,,,0.00,weatherlink.com 1.10,2013-03-28 08:08:00,
2013-03-28 04:15:00,38.6,37.3,30.25,NW,321,0.0,0.0,95,0.00,,,0.00,Wunderground v.1.15,2013-03-28 08:15:00,
2013-03-28 04:20:00,38.4,37.1,30.25,NW,321,0.0,0.0,95,0.00,,,0.00,Wunderground v.1.15,2013-03-28 08:20:00,
2013-03-28 04:30:00,38.3,37.0,30.24,NW,322,0.0,0.0,95,0.00,,,0.00,Wunderground v.1.15,2013-03-28 08:30:00,
2013-03-28 04:35:00,38.2,36.9,30.24,NW,321,0.0,0.0,95,0.00,,,0.00,Wunderground v.1.15,2013-03-28 08:35:00,
2013-03-28 04:40:00,38.2,36.9,30.24,NW,322,0.0,0.0,95,0.00,,,0.00,Wunderground v.1.15,2013-03-28 08:40:00,
2013-03-28 04:45:00,38.2,36.9,30.24,NW,322,0.0,0.0,95,0.00,,,0.00,Wunderground v.1.15,2013-03-28 08:45:00,
2013-03-28 04:53:00,38.1,37.0,30.24,NW,316,0.0,-999.0,95,-99.99,,,0.00,weatherlink.com 1.10,2013-03-28 08:53:00,
2013-03-28 05:00:00,38.2,36.9,30.24,NW,322,0.0,0.0,95,0.00,,,0.00,Wunderground v.1.15,2013-03-28 09:00:00,
2013-03-28 05:05:00,38.2,36.9,30.24,NW,321,0.0,0.0,95,0.00,,,0.00,Wunderground v.1.15,2013-03-28 09:05:00,
2013-03-28 05:15:00,38.1,36.8,30.24,NW,321,0.0,0.0,95,0.00,,,0.00,Wunderground v.1.15,2013-03-28 09:15:00,
2013-03-28 05:20:00,38.1,36.8,30.24,NW,322,0.0,0.0,95,0.00,,,0.00,Wunderground v.1.15,2013-03-28 09:20:00,
2013-03-28 05:30:00,37.8,36.5,30.24,NW,321,0.0,0.0,95,0.00,,,0.00,Wunderground v.1.15,2013-03-28 09:30:00,
2013-03-28 05:35:00,37.8,36.5,30.24,NW,321,0.0,0.0,95,0.00,,,0.00,Wunderground v.1.15,2013-03-28 09:35:00,
2013-03-28 05:40:00,37.8,36.5,30.24,NW,322,0.0,0.0,95,0.00,,,0.00,Wunderground v.1.15,2013-03-28 09:40:00,
2013-03-28 05:45:00,37.8,36.5,30.24,NW,322,0.0,0.0,95,0.00,,,0.00,Wunderground v.1.15,2013-03-28 09:45:00,
2013-03-28 05:50:00,37.8,36.5,30.24,NW,321,0.0,0.0,95,0.00,,,0.00,Wunderground v.1.15,2013-03-28 09:50:00,
2013-03-28 06:00:00,37.8,36.8,30.24,NW,321,0.0,0.0,96,0.00,,,0.00,Wunderground v.1.15,2013-03-28 10:00:00,
2013-03-28 06:08:00,37.6,37.0,30.24,NW,317,0.0,-999.0,96,-99.99,,,0.00,weatherlink.com 1.10,2013-03-28 10:08:00,
2013-03-28 06:23:00,37.6,37.0,30.24,NW,316,0.0,-999.0,96,-99.99,,,0.00,weatherlink.com 1.10,2013-03-28 10:23:00,
2013-03-28 06:38:00,37.5,36.0,30.24,NW,317,0.0,-999.0,95,-99.99,,,0.00,weatherlink.com 1.10,2013-03-28 10:38:00,
2013-03-28 06:53:00,37.3,36.0,30.25,NW,317,0.0,-999.0,95,-99.99,,,0.00,weatherlink.com 1.10,2013-03-28 10:53:00,
2013-03-28 07:08:00,37.1,36.0,30.25,NW,317,0.0,-999.0,95,-99.99,,,0.00,weatherlink.com 1.10,2013-03-28 11:08:00,
2013-03-28 07:23:00,37.0,36.0,30.26,NW,316,0.0,-999.0,95,-99.99,,,0.00,weatherlink.com 1.10,2013-03-28 11:23:00,
2013-03-28 07:38:00,37.1,36.0,30.26,WSW,250,0.0,-999.0,96,-99.99,,,0.00,weatherlink.com 1.10,2013-03-28 11:38:00,
2013-03-28 07:53:00,37.8,37.0,30.27,WSW,250,0.0,-999.0,96,-99.99,,,0.00,weatherlink.com 1.10,2013-03-28 11:53:00,
2013-03-28 08:08:00,38.8,38.0,30.27,WSW,250,0.0,-999.0,96,-99.99,,,0.00,weatherlink.com 1.10,2013-03-28 12:08:00,
2013-03-28 08:23:00,39.6,39.0,30.27,WSW,249,0.0,-999.0,96,-99.99,,,0.00,weatherlink.com 1.10,2013-03-28 12:23:00,
2013-03-28 08:38:00,42.0,41.0,30.27,WSW,246,0.0,-999.0,96,-99.99,,,0.00,weatherlink.com 1.10,2013-03-28 12:38:00,
2013-03-28 08:53:00,44.7,42.0,30.27,WSW,247,0.0,-999.0,89,-99.99,,,0.00,weatherlink.com 1.10,2013-03-28 12:53:00,
2013-03-28 09:08:00,47.9,43.0,30.28,WSW,249,0.0,-999.0,84,-99.99,,,0.00,weatherlink.com 1.10,2013-03-28 13:08:00,
2013-03-28 09:23:00,51.9,45.0,30.28,WSW,252,0.0,-999.0,77,-99.99,,,0.00,weatherlink.com 1.10,2013-03-28 13:23:00,
2013-03-28 09:38:00,53.6,41.0,30.28,NW,314,0.0,-999.0,63,-99.99,,,0.00,weatherlink.com 1.10,2013-03-28 13:38:00,
2013-03-28 09:54:00,54.8,39.0,30.29,NNE,32,0.0,-999.0,55,-99.99,,,0.00,weatherlink.com 1.10,2013-03-28 13:54:00,
2013-03-28 10:09:00,56.3,39.0,30.29,ENE,63,0.0,-999.0,53,-99.99,,,0.00,weatherlink.com 1.10,2013-03-28 14:09:00,
2013-03-28 10:24:00,59.3,40.0,30.29,SE,130,0.0,-999.0,49,-99.99,,,0.00,weatherlink.com 1.10,2013-03-28 14:24:00,
2013-03-28 10:39:00,58.7,35.0,30.29,NW,309,0.0,-999.0,41,-99.99,,,0.00,weatherlink.com 1.10,2013-03-28 14:39:00,
2013-03-28 10:54:00,59.4,34.0,30.30,WNW,292,2.0,-999.0,39,-99.99,,,0.00,weatherlink.com 1.10,2013-03-28 14:54:00,
2013-03-28 11:09:00,60.9,36.0,30.29,WSW,252,1.0,-999.0,39,-99.99,,,0.00,weatherlink.com 1.10,2013-03-28 15:09:00,
2013-03-28 11:24:00,62.1,35.0,30.29,WNW,295,0.0,-999.0,37,-99.99,,,0.00,weatherlink.com 1.10,2013-03-28 15:24:00,
2013-03-28 11:39:00,62.8,39.0,30.29,ENE,76,2.0,-999.0,41,-99.99,,,0.00,weatherlink.com 1.10,2013-03-28 15:39:00,
2013-03-28 11:54:00,62.7,36.0,30.29,WSW,253,1.0,-999.0,37,-99.99,,,0.00,weatherlink.com 1.10,2013-03-28 15:54:00,
2013-03-28 12:09:00,63.4,34.0,30.29,WSW,254,2.0,-999.0,33,-99.99,,,0.00,weatherlink.com 1.10,2013-03-28 16:09:00,
2013-03-28 12:24:00,63.9,36.0,30.29,NNE,30,1.0,-999.0,35,-99.99,,,0.00,weatherlink.com 1.10,2013-03-28 16:24:00,
2013-03-28 12:39:00,64.3,35.0,30.29,NNW,339,1.0,-999.0,34,-99.99,,,0.00,weatherlink.com 1.10,2013-03-28 16:39:00,
2013-03-28 12:54:00,64.5,35.0,30.28,NW,325,0.0,-999.0,33,-99.99,,,0.00,weatherlink.com 1.10,2013-03-28 16:54:00,
2013-03-28 13:09:00,65.0,36.0,30.28,NW,317,2.0,-999.0,34,-99.99,,,0.00,weatherlink.com 1.10,2013-03-28 17:09:00,
2013-03-28 13:24:00,65.1,35.0,30.27,WNW,284,0.0,-999.0,33,-99.99,,,0.00,weatherlink.com 1.10,2013-03-28 17:24:00,
2013-03-28 13:39:00,66.4,38.0,30.27,SE,131,1.0,-999.0,35,-99.99,,,0.00,weatherlink.com 1.10,2013-03-28 17:39:00,
2013-03-28 13:54:00,66.1,34.0,30.26,NE,43,1.0,-999.0,30,-99.99,,,0.00,weatherlink.com 1.10,2013-03-28 17:54:00,
2013-03-28 14:09:00,66.4,39.0,30.26,WNW,283,0.0,-999.0,37,-99.99,,,0.00,weatherlink.com 1.10,2013-03-28 18:09:00,
2013-03-28 14:39:00,63.5,42.0,30.25,SSW,200,1.0,-999.0,46,-99.99,,,0.00,weatherlink.com 1.10,2013-03-28 18:39:00,
2013-03-28 14:54:00,62.0,42.0,30.25,SE,138,2.0,-999.0,49,-99.99,,,0.00,weatherlink.com 1.10,2013-03-28 18:54:00,
2013-03-28 15:09:00,61.3,43.0,30.24,WSW,239,0.0,-999.0,51,-99.99,,,0.00,weatherlink.com 1.10,2013-03-28 19:09:00,
2013-03-28 15:24:00,60.8,43.0,30.24,SE,131,1.0,-999.0,53,-99.99,,,0.00,weatherlink.com 1.10,2013-03-28 19:24:00,
2013-03-28 15:39:00,59.4,43.0,30.24,SE,129,4.0,-999.0,56,-99.99,,,0.00,weatherlink.com 1.10,2013-03-28 19:39:00,
2013-03-28 15:54:00,59.5,44.0,30.23,SE,131,0.0,-999.0,58,-99.99,,,0.00,weatherlink.com 1.10,2013-03-28 19:54:00,
2013-03-28 16:09:00,59.0,43.0,30.23,ESE,109,1.0,-999.0,56,-99.99,,,0.00,weatherlink.com 1.10,2013-03-28 20:09:00,
2013-03-28 16:24:00,59.0,42.0,30.21,SSW,198,1.0,-999.0,54,-99.99,,,0.00,weatherlink.com 1.10,2013-03-28 20:24:00,
2013-03-28 16:30:00,59.0,42.8,30.22,ENE,57,1.0,4.0,55,0.00,,,0.00,Wunderground v.1.15,2013-03-28 20:30:00,
2013-03-28 16:35:00,58.7,42.1,30.23,SE,145,2.0,3.0,54,0.00,,,0.00,Wunderground v.1.15,2013-03-28 20:35:00,
2013-03-28 16:40:00,58.6,42.5,30.23,ESE,121,2.0,4.0,55,0.00,,,0.00,Wunderground v.1.15,2013-03-28 20:40:00,
2013-03-28 16:45:00,58.5,42.8,30.23,SW,236,3.0,4.0,56,0.00,,,0.00,Wunderground v.1.15,2013-03-28 20:45:00,
2013-03-28 16:54:00,58.5,43.0,30.22,West,271,0.0,-999.0,57,-99.99,,,0.00,weatherlink.com 1.10,2013-03-28 20:54:00,
2013-03-28 17:00:00,58.7,43.5,30.22,East,97,1.0,3.0,57,0.00,,,0.00,Wunderground v.1.15,2013-03-28 21:00:00,
2013-03-28 17:05:00,58.8,43.6,30.22,SSE,166,1.0,8.0,57,0.00,,,0.00,Wunderground v.1.15,2013-03-28 21:05:00,
2013-03-28 17:10:00,58.6,43.4,30.22,SSW,205,1.0,1.0,57,0.00,,,0.00,Wunderground v.1.15,2013-03-28 21:10:00,
2013-03-28 17:15:00,58.5,41.4,30.22,ESE,110,2.0,2.0,53,0.00,,,0.00,Wunderground v.1.15,2013-03-28 21:15:00,
2013-03-28 17:24:00,58.5,42.0,30.21,East,99,0.0,-999.0,54,-99.99,,,0.00,weatherlink.com 1.10,2013-03-28 21:24:00,
2013-03-28 17:30:00,58.3,41.2,30.22,SE,128,1.0,8.0,53,0.00,,,0.00,Wunderground v.1.15,2013-03-28 21:30:00,
2013-03-28 17:35:00,58.4,41.3,30.23,East,89,2.0,8.0,53,0.00,,,0.00,Wunderground v.1.15,2013-03-28 21:35:00,
2013-03-28 17:40:00,58.6,42.9,30.23,ESE,103,1.0,1.0,56,0.00,,,0.00,Wunderground v.1.15,2013-03-28 21:40:00,
2013-03-28 17:45:00,58.6,42.0,30.23,SE,128,1.0,8.0,54,0.00,,,0.00,Wunderground v.1.15,2013-03-28 21:45:00,
2013-03-28 17:50:00,58.7,43.0,30.22,East,101,1.0,1.0,56,0.00,,,0.00,Wunderground v.1.15,2013-03-28 21:50:00,
2013-03-28 17:55:00,58.9,42.8,30.22,NE,54,0.0,8.0,55,0.00,,,0.00,Wunderground v.1.15,2013-03-28 21:55:00,
2013-03-28 18:05:00,58.8,42.7,30.23,East,99,1.0,8.0,55,0.00,,,0.00,Wunderground v.1.15,2013-03-28 22:05:00,
2013-03-28 18:10:00,58.7,40.6,30.23,WSW,241,1.0,1.0,51,0.00,,,0.00,Wunderground v.1.15,2013-03-28 22:10:00,
2013-03-28 18:15:00,58.8,41.7,30.23,ESE,120,0.0,8.0,53,0.00,,,0.00,Wunderground v.1.15,2013-03-28 22:15:00,
2013-03-28 18:20:00,58.5,42.8,30.23,NNW,338,0.0,8.0,56,0.00,,,0.00,Wunderground v.1.15,2013-03-28 22:20:00,
2013-03-28 18:25:00,58.0,43.3,30.23,NW,311,0.0,8.0,58,0.00,,,0.00,Wunderground v.1.15,2013-03-28 22:25:00,
2013-03-28 18:30:00,57.7,43.9,30.23,East,98,0.0,8.0,60,0.00,,,0.00,Wunderground v.1.15,2013-03-28 22:30:00,
2013-03-28 18:35:00,57.4,43.2,30.23,SSE,148,0.0,8.0,59,0.00,,,0.00,Wunderground v.1.15,2013-03-28 22:35:00,
2013-03-28 18:45:00,57.1,42.0,30.23,ESE,108,0.0,8.0,57,0.00,,,0.00,Wunderground v.1.15,2013-03-28 22:45:00,
2013-03-28 18:50:00,56.9,43.2,30.23,SSE,160,0.0,8.0,60,0.00,,,0.00,Wunderground v.1.15,2013-03-28 22:50:00,
2013-03-28 18:55:00,56.6,43.3,30.23,SSE,160,0.0,8.0,61,0.00,,,0.00,Wunderground v.1.15,2013-03-28 22:55:00,
2013-03-28 19:09:00,55.7,43.0,30.23,SSE,160,0.0,-999.0,63,-99.99,,,0.00,weatherlink.com 1.10,2013-03-28 23:09:00,
2013-03-28 19:24:00,54.8,43.0,30.23,SSE,164,0.0,-999.0,64,-99.99,,,0.00,weatherlink.com 1.10,2013-03-28 23:24:00,
2013-03-28 19:39:00,53.7,44.0,30.24,SSE,164,0.0,-999.0,69,-99.99,,,0.00,weatherlink.com 1.10,2013-03-28 23:39:00,
2013-03-28 19:54:00,52.4,43.0,30.24,SSE,165,0.0,-999.0,71,-99.99,,,0.00,weatherlink.com 1.10,2013-03-28 23:54:00,
2013-03-28 20:09:00,51.1,43.0,30.24,SSE,164,0.0,-999.0,75,-99.99,,,0.00,weatherlink.com 1.10,2013-03-29 00:09:00,
2013-03-28 20:24:00,50.0,43.0,30.24,SSE,164,0.0,-999.0,77,-99.99,,,0.00,weatherlink.com 1.10,2013-03-29 00:24:00,
2013-03-28 20:39:00,49.1,43.0,30.25,SSE,164,0.0,-999.0,80,-99.99,,,0.00,weatherlink.com 1.10,2013-03-29 00:39:00,
2013-03-28 20:54:00,48.4,44.0,30.25,SSE,164,0.0,-999.0,83,-99.99,,,0.00,weatherlink.com 1.10,2013-03-29 00:54:00,
2013-03-28 21:09:00,47.8,44.0,30.26,SSE,164,0.0,-999.0,85,-99.99,,,0.00,weatherlink.com 1.10,2013-03-29 01:09:00,
2013-03-28 21:24:00,47.3,44.0,30.26,SSE,165,0.0,-999.0,88,-99.99,,,0.00,weatherlink.com 1.10,2013-03-29 01:24:00,
2013-03-28 21:39:00,46.8,44.0,30.26,SSE,164,0.0,-999.0,89,-99.99,,,0.00,weatherlink.com 1.10,2013-03-29 01:39:00,
2013-03-28 21:54:00,46.5,44.0,30.27,SSE,165,0.0,-999.0,90,-99.99,,,0.00,weatherlink.com 1.10,2013-03-29 01:54:00,
2013-03-28 22:09:00,46.2,44.0,30.27,SSE,165,0.0,-999.0,91,-99.99,,,0.00,weatherlink.com 1.10,2013-03-29 02:09:00,
2013-03-28 22:24:00,45.8,44.0,30.28,SSE,165,0.0,-999.0,92,-99.99,,,0.00,weatherlink.com 1.10,2013-03-29 02:24:00,
2013-03-28 22:39:00,45.5,43.0,30.29,SSE,164,0.0,-999.0,92,-99.99,,,0.00,weatherlink.com 1.10,2013-03-29 02:39:00,
2013-03-28 22:54:00,45.2,43.0,30.29,SSE,164,0.0,-999.0,93,-99.99,,,0.00,weatherlink.com 1.10,2013-03-29 02:54:00,
2013-03-28 23:09:00,45.0,43.0,30.29,SSE,165,0.0,-999.0,93,-99.99,,,0.00,weatherlink.com 1.10,2013-03-29 03:09:00,
2013-03-28 23:24:00,44.7,43.0,30.29,SSE,164,0.0,-999.0,93,-99.99,,,0.00,weatherlink.com 1.10,2013-03-29 03:24:00,
2013-03-28 23:39:00,44.4,43.0,30.29,SSE,164,0.0,-999.0,93,-99.99,,,0.00,weatherlink.com 1.10,2013-03-29 03:39:00,
2013-03-28 23:54:00,44.1,43.0,30.29,SSE,164,0.0,-999.0,94,-99.99,,,0.00,weatherlink.com 1.10,2013-03-29 03:54:00,